Time;durP1;ratioP1;P1;durP2;ratioP2;P2;SDS_P1;SDS_P2;PMS_P1;PMS_P2;Temp;Humidity;BMP_temperature;BMP_pressure;BME280_temperature;BME280_humidity;BME280_pressure;Samples;Min_cycle;Max_cycle;Signal;HPM_P1;HPM_P2
2022/09/05 00:00:13;;;;;;;3.65;1.65;;;;;;;7.87;100.00;100977.91;1661045;86;21258;-62
2022/09/05 00:03:09;;;;;;;3.67;2.00;;;;;;;7.84;100.00;100980.34;1660911;86;21286;-62
2022/09/05 00:05:48;;;;;;;4.20;1.60;;;;;;;7.86;100.00;100982.30;1660971;86;21358;-54
2022/09/05 00:08:27;;;;;;;3.00;1.60;;;;;;;7.90;100.00;100975.84;1660230;86;22076;-61
2022/09/05 00:11:25;;;;;;;2.43;1.43;;;;;;;7.89;100.00;100972.11;1658170;86;21248;-54
2022/09/05 00:14:03;;;;;;;3.00;1.83;;;;;;;7.76;100.00;100973.75;1660829;85;22103;-62
2022/09/05 00:16:43;;;;;;;4.17;1.72;;;;;;;7.66;100.00;100976.91;1660827;86;21178;-55
2022/09/05 00:19:36;;;;;;;3.00;1.40;;;;;;;7.52;100.00;100977.72;1657934;86;21075;-57
2022/09/05 00:22:18;;;;;;;3.07;1.53;;;;;;;7.55;100.00;100973.55;1661056;85;21395;-55
2022/09/05 00:25:02;;;;;;;4.60;1.60;;;;;;;7.45;100.00;100974.06;1658123;86;21079;-56
2022/09/05 00:28:00;;;;;;;2.62;1.50;;;;;;;7.34;100.00;100972.97;1661054;86;21495;-56
2022/09/05 00:30:35;;;;;;;2.80;1.52;;;;;;;7.33;100.00;100978.31;1660867;85;21266;-62
2022/09/05 00:33:17;;;;;;;4.08;1.60;;;;;;;7.24;100.00;100977.41;1658425;86;21164;-55
2022/09/05 00:36:09;;;;;;;2.98;1.65;;;;;;;7.13;100.00;100978.88;1657097;85;21023;-60
2022/09/05 00:38:40;;;;;;;3.17;1.55;;;;;;;7.07;100.00;100983.66;1658363;86;21066;-55
2022/09/05 00:41:11;;;;;;;3.75;1.90;;;;;;;6.99;100.00;100979.67;1658573;86;21136;-55
2022/09/05 00:43:42;;;;;;;3.25;1.55;;;;;;;6.89;100.00;100976.28;1658444;85;21245;-55
2022/09/05 00:46:25;;;;;;;3.60;1.70;;;;;;;6.86;100.00;100981.77;1658552;86;21595;-54
2022/09/05 00:49:21;;;;;;;3.40;1.60;;;;;;;6.83;100.00;100983.34;1659233;86;21580;-54
2022/09/05 00:51:59;;;;;;;3.20;1.47;;;;;;;6.83;100.00;100985.94;1659066;85;21536;-55
2022/09/05 00:55:14;;;;;;;4.90;1.40;;;;;;;6.79;100.00;100984.58;1652111;86;21091;-62
2022/09/05 00:58:08;;;;;;;4.17;2.25;;;;;;;6.72;100.00;100989.98;1658529;86;21383;-60
2022/09/05 01:00:57;;;;;;;6.62;1.75;;;;;;;6.63;100.00;100979.14;1661093;86;21063;-55
2022/09/05 01:04:03;;;;;;;3.58;1.40;;;;;;;6.67;100.00;100977.45;1660514;86;21085;-62
2022/09/05 01:07:09;;;;;;;3.37;1.90;;;;;;;6.58;100.00;100973.91;1661129;86;21004;-57
2022/09/05 01:09:49;;;;;;;4.00;1.40;;;;;;;6.55;100.00;100975.50;1661328;86;21367;-55
2022/09/05 01:12:44;;;;;;;2.80;1.50;;;;;;;6.53;100.00;100971.41;1658158;85;21653;-62
2022/09/05 01:15:32;;;;;;;3.65;1.65;;;;;;;6.51;100.00;100970.23;1658714;86;20976;-55
2022/09/05 01:18:46;;;;;;;3.65;1.87;;;;;;;6.58;100.00;100970.50;1660619;85;21378;-55
2022/09/05 01:21:40;;;;;;;3.65;1.77;;;;;;;6.50;100.00;100969.09;1660503;86;21034;-61
2022/09/05 01:24:29;;;;;;;3.55;1.80;;;;;;;6.49;100.00;100979.93;1658454;86;21096;-55
2022/09/05 01:27:20;;;;;;;3.02;1.82;;;;;;;6.34;100.00;100972.25;1661211;86;21487;-55
2022/09/05 01:29:50;;;;;;;3.08;1.60;;;;;;;6.39;100.00;100969.23;1657084;85;20960;-57
2022/09/05 01:32:41;;;;;;;3.08;1.82;;;;;;;6.45;100.00;100972.09;1658381;86;21543;-55
2022/09/05 01:35:34;;;;;;;4.65;1.90;;;;;;;6.41;100.00;100965.56;1658782;85;20943;-56
2022/09/05 01:38:21;;;;;;;7.20;2.70;;;;;;;6.38;100.00;100966.31;1658923;86;21027;-55
2022/09/05 01:41:22;;;;;;;5.53;1.92;;;;;;;6.26;100.00;100979.89;1661057;86;21281;-56
2022/09/05 01:43:57;;;;;;;6.03;2.17;;;;;;;6.26;100.00;100969.53;1658824;86;20960;-55
2022/09/05 01:46:45;;;;;;;3.50;1.50;;;;;;;6.20;100.00;100967.00;1658492;86;21034;-56
2022/09/05 01:49:38;;;;;;;2.87;1.57;;;;;;;6.15;100.00;100961.91;1658560;86;21014;-56
2022/09/05 01:52:26;;;;;;;3.90;1.97;;;;;;;6.12;100.00;100969.94;1658756;86;21078;-62
2022/09/05 01:55:49;;;;;;;3.62;2.05;;;;;;;6.04;100.00;100963.67;1658508;85;21143;-56
2022/09/05 01:58:58;;;;;;;5.17;1.72;;;;;;;6.05;100.00;100958.83;1658599;86;21023;-55
2022/09/05 02:01:58;;;;;;;3.15;1.77;;;;;;;6.05;100.00;100964.48;1658739;86;21526;-56
2022/09/05 02:04:51;;;;;;;2.90;1.80;;;;;;;5.96;100.00;100964.83;1660603;86;21480;-55
2022/09/05 02:07:32;;;;;;;3.40;1.80;;;;;;;5.94;100.00;100969.79;1661165;86;21007;-63
2022/09/05 02:10:14;;;;;;;2.80;1.65;;;;;;;5.91;100.00;100964.40;1661209;86;21471;-55
2022/09/05 02:12:45;;;;;;;;;;;;;;;5.85;100.00;100966.22;1663937;86;20959;-56
2022/09/05 02:15:27;;;;;;;4.72;1.98;;;;;;;5.82;100.00;100966.00;1657070;85;20426;-61
2022/09/05 02:17:56;;;;;;;3.92;2.10;;;;;;;5.75;100.00;100967.97;1659210;86;21097;-56
2022/09/05 02:20:46;;;;;;;3.80;1.90;;;;;;;5.80;100.00;100967.11;1661729;86;21050;-55
2022/09/05 02:23:24;;;;;;;5.53;2.33;;;;;;;5.77;100.00;100963.02;1660213;86;21427;-56
2022/09/05 02:26:06;;;;;;;4.45;1.95;;;;;;;5.80;100.00;100966.63;1659184;86;21039;-55
2022/09/05 02:28:41;;;;;;;4.65;2.00;;;;;;;5.76;100.00;100967.04;1659258;85;21613;-56
2022/09/05 02:31:35;;;;;;;4.00;2.00;;;;;;;5.79;100.00;100957.69;1660051;86;20960;-55
2022/09/05 02:34:36;;;;;;;4.12;2.17;;;;;;;5.75;100.00;100960.20;1660787;86;22030;-56
2022/09/05 02:37:36;;;;;;;3.87;1.92;;;;;;;5.71;100.00;100956.25;1661131;85;25178;-62
2022/09/05 02:40:30;;;;;;;3.67;1.80;;;;;;;5.63;100.00;100971.63;1650038;86;21091;-58
2022/09/05 02:43:39;;;;;;;4.10;2.22;;;;;;;5.49;100.00;100971.07;1658317;85;21610;-56
2022/09/05 02:46:19;;;;;;;4.25;1.90;;;;;;;5.46;100.00;100966.16;1661040;85;21024;-56
2022/09/05 02:49:08;;;;;;;4.45;1.90;;;;;;;5.35;100.00;100962.38;1639784;86;20928;-56
2022/09/05 02:51:53;;;;;;;2.87;1.45;;;;;;;5.33;100.00;100963.78;1657863;86;21911;-56
2022/09/05 02:54:24;;;;;;;2.95;1.52;;;;;;;5.33;100.00;100970.25;1659418;85;21656;-55
2022/09/05 02:57:30;;;;;;;3.60;1.75;;;;;;;5.42;100.00;100971.25;1641547;86;21022;-55
2022/09/05 03:00:23;;;;;;;3.17;1.75;;;;;;;5.42;100.00;100969.95;1661678;86;21488;-55
2022/09/05 03:03:13;;;;;;;3.65;1.80;;;;;;;5.42;100.00;100972.55;1659161;86;21409;-56
2022/09/05 03:06:01;;;;;;;4.47;1.50;;;;;;;5.44;100.00;100978.38;1661556;86;22287;-55
2022/09/05 03:09:01;;;;;;;4.75;2.00;;;;;;;5.49;100.00;100981.41;1640496;86;21520;-55
2022/09/05 03:12:12;;;;;;;3.27;1.92;;;;;;;5.53;100.00;100985.37;1658430;86;20971;-62
2022/09/05 03:15:24;;;;;;;3.92;1.65;;;;;;;5.64;100.00;100988.77;1658600;86;21047;-62
2022/09/05 03:18:13;;;;;;;4.47;2.05;;;;;;;5.75;100.00;100976.55;1658670;86;20988;-62
2022/09/05 03:21:00;;;;;;;3.90;1.80;;;;;;;6.02;100.00;100977.69;1658330;86;21178;-56
2022/09/05 03:23:56;;;;;;;3.05;1.40;;;;;;;5.94;100.00;100983.54;1660879;86;20936;-56
2022/09/05 03:26:50;;;;;;;2.55;1.57;;;;;;;6.08;100.00;100984.44;1659027;86;21309;-56
2022/09/05 03:29:38;;;;;;;2.58;1.10;;;;;;;6.43;100.00;100975.30;1660618;85;21010;-56
2022/09/05 03:32:41;;;;;;;2.98;1.47;;;;;;;7.27;100.00;100978.39;1659087;85;21071;-57
2022/09/05 03:35:31;;;;;;;2.98;1.20;;;;;;;8.47;100.00;100972.94;1661627;86;22646;-55
2022/09/05 03:38:31;;;;;;;2.20;0.97;;;;;;;9.94;100.00;100974.37;1660636;86;20912;-61
2022/09/05 03:41:19;;;;;;;2.90;1.10;;;;;;;11.31;100.00;100965.69;1661840;85;21278;-55
2022/09/05 03:43:58;;;;;;;4.73;1.70;;;;;;;12.61;100.00;100960.52;1661935;86;21913;-55
2022/09/05 03:46:48;;;;;;;5.90;1.43;;;;;;;13.67;100.00;100955.33;1659019;86;21701;-55
2022/09/05 03:49:48;;;;;;;2.57;1.37;;;;;;;14.54;100.00;100946.41;1661758;85;22032;-56
2022/09/05 03:52:21;;;;;;;2.47;1.37;;;;;;;15.60;100.00;100939.50;1658798;86;20967;-60
2022/09/05 03:55:20;;;;;;;1.90;1.00;;;;;;;16.51;100.00;100933.16;1658990;85;21114;-56
2022/09/05 03:58:33;;;;;;;2.73;1.30;;;;;;;17.47;100.00;100928.49;1658778;86;21027;-60
2022/09/05 04:01:20;;;;;;;2.67;1.30;;;;;;;18.06;100.00;100928.59;1659094;86;20959;-56
2022/09/05 04:03:52;;;;;;;2.57;1.33;;;;;;;17.93;100.00;100937.95;1661257;86;21978;-56
2022/09/05 04:06:33;;;;;;;3.57;1.50;;;;;;;17.48;100.00;100932.73;1658895;86;20960;-57
2022/09/05 04:09:23;;;;;;;2.13;1.03;;;;;;;16.96;100.00;100935.40;1659982;86;21039;-62
2022/09/05 04:11:57;;;;;;;2.87;1.10;;;;;;;16.57;100.00;100930.23;1657804;86;20943;-57
2022/09/05 04:14:36;;;;;;;2.43;1.13;;;;;;;16.91;100.00;100923.89;1657751;86;21663;-56
2022/09/05 04:17:27;;;;;;;2.23;1.00;;;;;;;17.92;100.00;100924.47;1659339;86;21961;-58
2022/09/05 04:20:08;;;;;;;2.40;1.10;;;;;;;18.81;100.00;100921.09;1658072;86;20991;-58
2022/09/05 04:22:42;;;;;;;3.03;1.40;;;;;;;19.62;95.13;100925.95;1661241;86;21015;-57
2022/09/05 04:25:44;;;;;;;2.47;1.60;;;;;;;20.32;81.20;100933.67;1658874;86;21445;-58
2022/09/05 04:28:40;;;;;;;2.57;1.53;;;;;;;20.70;75.70;100923.12;1658687;86;21122;-56
2022/09/05 04:31:25;;;;;;;3.17;1.40;;;;;;;21.62;69.50;100934.95;1658107;86;22428;-64
2022/09/05 04:34:23;;;;;;;3.10;1.47;;;;;;;22.29;63.02;100926.20;1658678;86;21356;-58
2022/09/05 04:37:06;;;;;;;2.17;1.37;;;;;;;22.78;57.72;100927.11;1658478;85;20916;-58
2022/09/05 04:39:34;;;;;;;3.33;1.80;;;;;;;23.12;54.71;100930.98;1659284;86;21058;-56
2022/09/05 04:42:21;;;;;;;4.78;2.00;;;;;;;23.52;52.56;100931.91;1658341;86;21517;-57
2022/09/05 04:44:52;;;;;;;2.50;1.40;;;;;;;23.96;51.09;100938.41;1659021;86;21877;-56
2022/09/05 04:47:39;;;;;;;2.98;1.52;;;;;;;24.48;48.82;100933.70;1660920;85;20964;-64
2022/09/05 04:50:15;;;;;;;3.55;1.55;;;;;;;24.92;47.55;100936.53;1651010;86;21508;-56
2022/09/05 04:53:24;;;;;;;2.62;1.40;;;;;;;25.25;45.78;100933.98;1661057;85;21045;-56
2022/09/05 04:55:54;;;;;;;3.42;1.47;;;;;;;25.45;45.13;100924.66;1661326;86;21102;-56
2022/09/05 04:58:38;;;;;;;2.75;1.40;;;;;;;25.84;44.15;100928.19;1659009;85;21236;-56
2022/09/05 05:01:14;;;;;;;2.85;1.50;;;;;;;26.11;42.34;100928.42;1658677;86;20964;-64
2022/09/05 05:03:42;;;;;;;2.87;1.47;;;;;;;25.40;42.76;100935.88;1658829;86;21101;-56
2022/09/05 05:06:34;;;;;;;1.72;1.12;;;;;;;25.24;42.79;100928.39;1661525;86;20964;-60
2022/09/05 05:09:08;;;;;;;;;;;;;;;25.21;42.79;100928.91;1657361;86;21015;-56
2022/09/05 05:11:50;;;;;;;2.98;1.47;;;;;;;25.31;42.42;100924.94;1663107;85;21286;-63
2022/09/05 05:14:45;;;;;;;2.72;1.25;;;;;;;25.31;41.91;100925.47;1663394;86;21050;-56
2022/09/05 05:17:18;;;;;;;2.35;1.05;;;;;;;25.42;42.64;100922.55;1663270;86;20947;-60
2022/09/05 05:19:49;;;;;;;2.02;1.00;;;;;;;25.60;41.90;100923.07;1639526;86;21058;-56
2022/09/05 05:22:17;;;;;;;2.72;1.52;;;;;;;25.66;41.24;100919.34;1658923;86;21532;-61
2022/09/05 05:24:47;;;;;;;2.95;1.45;;;;;;;25.66;41.89;100917.47;1664300;85;21391;-55
2022/09/05 05:27:34;;;;;;;2.50;1.32;;;;;;;25.71;41.33;100916.13;1663489;86;21570;-55
2022/09/05 05:30:07;;;;;;;1.82;1.22;;;;;;;25.42;41.68;100915.05;1663138;86;21007;-55
2022/09/05 05:32:41;;;;;;;3.37;1.30;;;;;;;24.94;42.56;100913.88;1663554;85;21087;-63
2022/09/05 05:35:17;;;;;;;1.95;1.25;;;;;;;24.29;43.23;100915.19;1663852;86;21888;-56
2022/09/05 05:37:51;;;;;;;2.52;1.30;;;;;;;23.65;44.96;100917.38;1663259;86;21216;-57
2022/09/05 05:40:24;;;;;;;2.52;1.60;;;;;;;23.08;46.19;100919.23;1659191;86;21023;-63
2022/09/05 05:42:51;;;;;;;3.98;1.50;;;;;;;22.64;47.98;100924.53;1663714;86;21571;-55
2022/09/05 05:45:29;;;;;;;3.47;1.82;;;;;;;22.40;49.04;100924.49;1663494;85;21576;-60
2022/09/05 05:48:07;;;;;;;1.85;1.27;;;;;;;22.22;49.98;100921.58;1663698;85;22074;-55
2022/09/05 05:51:00;;;;;;;1.80;1.30;;;;;;;22.05;51.21;100922.38;1660753;86;21305;-55
2022/09/05 05:53:41;;;;;;;4.10;1.60;;;;;;;22.03;52.62;100921.80;1645112;86;20994;-55
2022/09/05 05:56:14;;;;;;;;;;;;;;;22.21;53.46;100924.77;1666293;86;21413;-55
2022/09/05 05:59:08;;;;;;;3.03;1.30;;;;;;;22.41;53.45;100925.56;1663237;85;20166;-63
2022/09/05 06:02:10;;;;;;;2.33;1.27;;;;;;;22.50;54.16;100925.44;1663556;86;21487;-55
2022/09/05 06:05:01;;;;;;;2.37;1.30;;;;;;;22.61;54.12;100926.88;1663756;86;21239;-59
2022/09/05 06:07:45;;;;;;;2.22;1.37;;;;;;;22.84;53.88;100925.30;1664004;86;21454;-55
2022/09/05 06:10:35;;;;;;;3.20;1.33;;;;;;;23.07;53.20;100921.63;1663209;86;20979;-57
2022/09/05 06:13:35;;;;;;;3.05;1.25;;;;;;;23.32;52.31;100918.41;1663751;86;21027;-58
2022/09/05 06:16:31;;;;;;;2.00;1.32;;;;;;;23.63;51.81;100919.47;1664045;86;21071;-56
2022/09/05 06:19:24;;;;;;;3.08;1.72;;;;;;;24.01;50.65;100921.13;1663326;86;21188;-56
2022/09/05 06:22:17;;;;;;;2.30;1.57;;;;;;;24.36;50.14;100922.42;1663566;86;20980;-61
2022/09/05 06:25:29;;;;;;;1.98;1.37;;;;;;;24.34;48.43;100921.06;1659861;86;21125;-58
2022/09/05 06:28:32;;;;;;;3.33;2.02;;;;;;;24.38;48.39;100910.95;1666049;86;21013;-56
2022/09/05 06:31:34;;;;;;;2.83;1.62;;;;;;;24.50;47.57;100915.57;1611441;88;21235;-62
2022/09/05 06:34:13;;;;;;;;;;;;;;;24.48;47.30;100913.71;1666030;85;21268;-54
2022/09/05 06:36:51;;;;;;;3.85;1.90;;;;;;;24.46;46.95;100919.02;1664549;85;20216;-57
2022/09/05 06:39:55;;;;;;;2.42;1.57;;;;;;;24.43;47.68;100924.86;1665533;85;20999;-54
2022/09/05 06:42:59;;;;;;;2.75;1.47;;;;;;;24.33;47.83;100930.12;1649458;86;21601;-54
2022/09/05 06:45:48;;;;;;;4.20;2.10;;;;;;;24.27;47.21;100922.63;1665696;86;21364;-60
2022/09/05 06:48:19;;;;;;;2.45;1.60;;;;;;;24.24;47.95;100922.63;1665981;85;21187;-54
2022/09/05 06:51:08;;;;;;;2.50;1.50;;;;;;;24.47;46.93;100921.45;1665824;86;21556;-55
2022/09/05 06:53:51;;;;;;;3.10;1.85;;;;;;;24.83;45.52;100916.25;1665281;86;21069;-57
2022/09/05 06:56:26;;;;;;;2.40;1.52;;;;;;;25.44;44.01;100909.72;1665697;85;21072;-55
2022/09/05 06:59:39;;;;;;;2.85;1.25;;;;;;;26.06;42.48;100910.50;1665598;85;20951;-55
2022/09/05 07:02:20;;;;;;;2.15;1.37;;;;;;;26.45;41.00;100909.88;1665511;86;21399;-54
2022/09/05 07:05:12;;;;;;;1.70;1.10;;;;;;;26.78;40.59;100906.27;1631171;87;20971;-54
2022/09/05 07:07:53;;;;;;;2.17;1.32;;;;;;;27.09;38.98;100906.92;1657899;86;20947;-55
2022/09/05 07:10:36;;;;;;;2.00;1.30;;;;;;;27.17;38.59;100899.67;1670829;85;21014;-53
2022/09/05 07:13:17;;;;;;;3.55;1.40;;;;;;;27.26;38.48;100895.31;1658265;86;21465;-55
2022/09/05 07:15:56;;;;;;;3.10;1.55;;;;;;;27.47;38.06;100899.19;1670837;84;21237;-53
2022/09/05 07:18:37;;;;;;;1.90;1.30;;;;;;;27.61;37.82;100889.41;1670569;85;20955;-54
2022/09/05 07:21:09;;;;;;;2.08;1.45;;;;;;;27.73;38.37;100883.16;1670389;85;21667;-55
2022/09/05 07:24:03;;;;;;;2.10;1.30;;;;;;;28.00;37.42;100881.84;1670828;85;21038;-54
2022/09/05 07:26:33;;;;;;;2.42;1.20;;;;;;;28.26;36.86;100877.80;1670144;84;21141;-63
2022/09/05 07:29:04;;;;;;;2.50;1.37;;;;;;;28.58;36.73;100879.03;1670636;85;21364;-55
2022/09/05 07:31:36;;;;;;;1.77;1.30;;;;;;;28.73;36.30;100870.78;1670508;85;21006;-57
2022/09/05 07:34:15;;;;;;;2.20;1.32;;;;;;;28.90;35.92;100877.52;1658504;86;21063;-56
2022/09/05 07:36:45;;;;;;;3.35;1.70;;;;;;;29.00;35.65;100872.83;1670416;84;22099;-55
2022/09/05 07:39:16;;;;;;;;;;;;;;;29.10;34.87;100875.92;1673350;85;21067;-56
2022/09/05 07:41:49;;;;;;;2.17;1.20;;;;;;;29.13;34.39;100869.94;1670395;85;21502;-55
2022/09/05 07:44:30;;;;;;;2.50;1.32;;;;;;;29.25;33.86;100869.52;1669823;84;21063;-64
2022/09/05 07:47:05;;;;;;;2.90;1.35;;;;;;;29.24;33.07;100865.21;1670617;84;21034;-56
2022/09/05 07:49:35;;;;;;;2.72;1.40;;;;;;;29.27;32.98;100859.27;1658751;86;22478;-56
2022/09/05 07:52:20;;;;;;;2.05;1.20;;;;;;;29.38;32.70;100863.92;1670289;85;21042;-55
2022/09/05 07:54:51;;;;;;;5.05;1.50;;;;;;;29.61;31.79;100861.66;1670295;85;21591;-62
2022/09/05 07:57:31;;;;;;;2.67;1.70;;;;;;;29.71;32.06;100856.12;1671004;85;20978;-55
2022/09/05 08:00:03;;;;;;;2.52;1.20;;;;;;;29.78;31.80;100857.08;1669646;84;22205;-57
2022/09/05 08:02:33;;;;;;;2.20;1.37;;;;;;;30.08;31.77;100853.01;1657268;86;21028;-55
2022/09/05 08:05:04;;;;;;;1.92;1.10;;;;;;;30.49;30.90;100848.13;1670114;85;21019;-57
2022/09/05 08:07:37;;;;;;;2.37;1.10;;;;;;;30.69;30.10;100849.05;1642458;85;21796;-55
2022/09/05 08:10:16;;;;;;;2.25;1.20;;;;;;;30.75;29.00;100848.39;1669718;85;21089;-56
2022/09/05 08:13:11;;;;;;;3.05;1.40;;;;;;;30.71;28.39;100845.48;1652827;86;22304;-55
2022/09/05 08:15:46;;;;;;;3.87;1.42;;;;;;;30.74;28.62;100843.56;1669564;85;20987;-55
2022/09/05 08:18:25;;;;;;;2.40;1.30;;;;;;;31.03;28.72;100839.68;1652959;86;21393;-58
2022/09/05 08:21:09;;;;;;;2.15;1.22;;;;;;;31.37;28.47;100834.30;1669290;85;22920;-55
2022/09/05 08:24:11;;;;;;;3.60;1.40;;;;;;;31.61;28.21;100838.77;1652082;86;21023;-56
2022/09/05 08:26:49;;;;;;;2.87;1.72;;;;;;;31.81;27.87;100833.92;1669677;85;21086;-56
2022/09/05 08:29:38;;;;;;;2.22;1.37;;;;;;;31.49;27.89;100822.39;1669777;85;21023;-56
2022/09/05 08:32:12;;;;;;;2.50;1.60;;;;;;;31.25;28.21;100818.65;1668853;85;21090;-55
2022/09/05 08:34:55;;;;;;;3.47;1.45;;;;;;;31.29;27.94;100814.78;1668922;85;21264;-59
2022/09/05 08:37:24;;;;;;;3.12;1.40;;;;;;;31.32;28.35;100811.52;1653178;86;21506;-55
2022/09/05 08:39:54;;;;;;;3.80;1.65;;;;;;;31.59;27.89;100809.17;1670083;85;21521;-55
2022/09/05 08:42:44;;;;;;;5.28;1.70;;;;;;;31.81;27.76;100811.01;1628421;86;21082;-58
2022/09/05 08:45:20;;;;;;;3.58;1.45;;;;;;;31.58;27.65;100808.39;1669869;85;21841;-55
2022/09/05 08:48:15;;;;;;;4.53;1.67;;;;;;;31.25;27.64;100805.18;1669185;85;21231;-56
2022/09/05 08:51:13;;;;;;;2.30;1.30;;;;;;;30.93;27.87;100792.25;1652782;86;20916;-54
2022/09/05 08:54:08;;;;;;;3.00;1.95;;;;;;;30.80;28.45;100803.89;1669586;85;21082;-54
2022/09/05 08:56:56;;;;;;;3.17;1.80;;;;;;;30.70;27.62;100799.50;1657546;86;21153;-61
2022/09/05 08:59:33;;;;;;;7.17;1.72;;;;;;;30.24;26.86;100797.84;1657629;85;21031;-54
2022/09/05 09:02:31;;;;;;;3.50;1.60;;;;;;;29.34;27.92;100800.05;1657546;86;21339;-54
2022/09/05 09:05:27;;;;;;;5.15;1.85;;;;;;;28.73;28.60;100790.84;1657340;86;21073;-59
2022/09/05 09:08:19;;;;;;;4.60;2.00;;;;;;;28.31;29.46;100791.93;1649976;85;21254;-54
2022/09/05 09:10:58;;;;;;;3.22;1.80;;;;;;;28.69;29.39;100781.78;1668899;85;21573;-54
2022/09/05 09:14:13;;;;;;;3.52;1.60;;;;;;;29.69;28.34;100778.23;1643748;85;21119;-55
2022/09/05 09:16:54;;;;;;;3.65;1.87;;;;;;;29.69;28.34;100778.23;1668448;85;21247;-57
2022/09/05 09:19:25;;;;;;;3.72;1.87;;;;;;;29.69;27.37;100776.89;1668537;85;20964;-62
2022/09/05 09:22:13;;;;;;;3.08;1.50;;;;;;;28.78;27.93;100771.97;1643309;85;21488;-55
2022/09/05 09:24:46;;;;;;;2.67;1.50;;;;;;;28.78;27.93;100771.97;1642730;85;21537;-54
2022/09/05 09:27:27;;;;;;;2.92;1.80;;;;;;;28.26;28.36;100775.92;1668591;85;21008;-55
2022/09/05 09:29:58;;;;;;;4.67;2.20;;;;;;;27.78;28.32;100773.84;1652242;85;21870;-62
2022/09/05 09:32:25;;;;;;;4.03;2.25;;;;;;;27.43;28.70;100778.97;1668933;85;21091;-54
2022/09/05 09:35:09;;;;;;;3.10;1.82;;;;;;;27.09;28.64;100773.92;1668133;85;21025;-56
2022/09/05 09:38:01;;;;;;;3.72;2.22;;;;;;;26.80;29.19;100775.20;1659747;85;21482;-56
2022/09/05 09:40:53;;;;;;;2.27;1.40;;;;;;;26.71;29.31;100764.03;1668505;85;21471;-54
2022/09/05 09:43:26;;;;;;;;;;;;;;;26.83;29.14;100755.14;1670634;85;21938;-54
2022/09/05 09:46:08;;;;;;;2.33;1.35;;;;;;;27.19;29.42;100752.97;1668459;85;20186;-57
2022/09/05 09:49:06;;;;;;;2.85;1.70;;;;;;;27.64;28.78;100747.69;1668732;85;20968;-54
2022/09/05 09:51:55;;;;;;;3.22;1.50;;;;;;;28.10;28.09;100745.81;1668900;85;21973;-55
2022/09/05 09:54:52;;;;;;;3.35;1.50;;;;;;;28.46;27.06;100744.58;1668437;85;21103;-60
2022/09/05 09:57:55;;;;;;;4.42;1.50;;;;;;;28.62;27.32;100739.22;1669034;85;21285;-54
2022/09/05 10:00:23;;;;;;;2.75;1.70;;;;;;;28.71;27.40;100746.05;1668881;85;21166;-56
2022/09/05 10:02:55;;;;;;;2.45;1.60;;;;;;;28.53;26.84;100734.28;1668840;85;21005;-54
2022/09/05 10:05:49;;;;;;;3.42;1.77;;;;;;;28.13;27.30;100737.75;1668411;85;20953;-57
2022/09/05 10:08:51;;;;;;;3.02;1.60;;;;;;;27.85;28.01;100736.23;1635043;86;21023;-54
2022/09/05 10:11:44;;;;;;;4.10;1.82;;;;;;;27.83;28.04;100739.73;1661142;86;22217;-54
2022/09/05 10:14:51;;;;;;;4.90;1.42;;;;;;;27.92;28.58;100741.25;1649513;86;20983;-57
2022/09/05 10:17:44;;;;;;;2.35;1.27;;;;;;;28.18;28.01;100738.22;1658813;86;21058;-54
2022/09/05 10:20:39;;;;;;;2.50;1.47;;;;;;;28.41;27.19;100739.27;1658912;85;21067;-55
2022/09/05 10:23:30;;;;;;;2.27;1.27;;;;;;;28.66;27.49;100724.14;1658727;86;21011;-61
2022/09/05 10:26:22;;;;;;;4.20;1.65;;;;;;;28.95;26.97;100731.20;1661830;86;21264;-54
2022/09/05 10:29:13;;;;;;;4.30;1.65;;;;;;;29.12;26.68;100732.78;1661192;86;20931;-54
2022/09/05 10:31:55;;;;;;;3.87;1.75;;;;;;;29.10;26.82;100729.62;1661357;86;21106;-54
2022/09/05 10:34:28;;;;;;;4.05;1.50;;;;;;;29.14;26.65;100729.83;1658811;86;20995;-54
2022/09/05 10:37:03;;;;;;;2.60;1.57;;;;;;;29.24;26.84;100725.04;1661375;86;21091;-54
2022/09/05 10:39:40;;;;;;;2.95;1.67;;;;;;;29.39;26.62;100720.48;1661138;85;21259;-55
2022/09/05 10:42:26;;;;;;;1.77;1.42;;;;;;;29.52;26.72;100717.81;1658340;86;21353;-55
2022/09/05 10:44:55;;;;;;;2.80;1.70;;;;;;;29.65;25.47;100709.52;1661530;85;21037;-55
2022/09/05 10:47:56;;;;;;;2.47;1.80;;;;;;;29.47;25.34;100715.76;1661568;86;21554;-62
2022/09/05 10:50:31;;;;;;;;;;;;;;;28.87;26.58;100716.56;1664334;86;21015;-55
2022/09/05 10:53:22;;;;;;;2.35;1.35;;;;;;;28.34;27.07;100713.60;1661434;86;21173;-64
2022/09/05 10:56:12;;;;;;;3.27;1.65;;;;;;;27.79;27.38;100709.24;1661278;86;20971;-55
2022/09/05 10:59:01;;;;;;;3.08;1.25;;;;;;;27.05;27.72;100717.20;1660796;86;20988;-57
2022/09/05 11:01:42;;;;;;;3.87;1.60;;;;;;;26.27;28.60;100710.83;1662568;85;20979;-54
2022/09/05 11:04:45;;;;;;;2.87;1.47;;;;;;;25.53;29.39;100718.32;1657979;86;21029;-63
2022/09/05 11:07:17;;;;;;;4.67;1.90;;;;;;;25.22;31.18;100718.39;1658505;86;21089;-55
2022/09/05 11:10:03;;;;;;;2.80;1.60;;;;;;;25.00;30.74;100715.47;1672359;85;21027;-55
2022/09/05 11:13:22;;;;;;;4.13;1.50;;;;;;;24.89;31.23;100718.37;1676236;85;20947;-54
2022/09/05 11:16:26;;;;;;;7.63;1.60;;;;;;;24.85;31.83;100714.64;1674144;84;21029;-54
2022/09/05 11:19:21;;;;;;;4.57;1.93;;;;;;;24.77;32.23;100713.31;1669801;85;21168;-54
2022/09/05 11:22:04;;;;;;;2.70;1.67;;;;;;;24.50;32.43;100705.02;1668508;85;21293;-63
2022/09/05 11:24:48;;;;;;;2.77;1.40;;;;;;;24.30;32.71;100716.96;1669106;85;21797;-54
2022/09/05 11:27:35;;;;;;;2.73;1.60;;;;;;;24.09;32.88;100712.09;1668816;85;21034;-62
2022/09/05 11:30:17;;;;;;;3.23;1.20;;;;;;;23.87;33.57;100710.97;1669038;85;21043;-54
2022/09/05 11:33:10;;;;;;;3.70;1.30;;;;;;;23.69;34.33;100706.09;1669277;85;21070;-55
2022/09/05 11:35:55;;;;;;;2.43;1.60;;;;;;;23.46;35.10;100710.73;1669273;85;21278;-55
2022/09/05 11:38:40;;;;;;;3.87;1.60;;;;;;;23.27;35.39;100705.56;1668585;85;20980;-59
2022/09/05 11:41:51;;;;;;;3.87;1.60;;;;;;;23.05;36.09;100707.80;1675320;84;21030;-54
2022/09/05 11:44:33;;;;;;;4.08;1.40;;;;;;;22.79;37.00;100709.42;1668561;85;22040;-54
2022/09/05 11:47:17;;;;;;;4.40;1.63;;;;;;;22.59;38.08;100705.27;1668742;85;21555;-54
2022/09/05 11:50:29;;;;;;;3.13;1.50;;;;;;;22.44;38.83;100701.94;1675384;85;21242;-54
2022/09/05 11:53:41;;;;;;;4.23;1.43;;;;;;;22.22;39.47;100690.55;1673870;85;21027;-55
2022/09/05 11:56:35;;;;;;;3.00;1.30;;;;;;;22.10;39.73;100695.44;1675447;85;21522;-63
2022/09/05 11:59:16;;;;;;;3.47;1.57;;;;;;;22.07;40.21;100694.60;1668348;85;21078;-64
2022/09/05 12:01:58;;;;;;;;;;;;;;;22.02;40.38;100698.53;1671356;85;21149;-63
2022/09/05 12:05:10;;;;;;;3.00;1.30;;;;;;;22.02;40.15;100688.45;1645811;85;21195;-55
2022/09/05 12:07:59;;;;;;;3.20;1.13;;;;;;;21.90;40.39;100693.89;1668519;85;21129;-55
2022/09/05 12:10:43;;;;;;;2.87;1.33;;;;;;;21.85;40.20;100687.97;1661255;85;21547;-55
2022/09/05 12:13:30;;;;;;;3.07;1.40;;;;;;;21.80;40.41;100680.48;1660815;85;21043;-55
2022/09/05 12:16:00;;;;;;;2.93;1.10;;;;;;;21.83;41.04;100684.78;1660921;85;21140;-56
2022/09/05 12:18:50;;;;;;;2.97;1.00;;;;;;;21.97;40.62;100676.42;1661224;85;21183;-55
2022/09/05 12:22:01;;;;;;;3.07;1.57;;;;;;;22.14;39.75;100672.41;1657565;86;21030;-55
2022/09/05 12:25:03;;;;;;;3.37;1.55;;;;;;;22.37;39.60;100669.45;1658800;85;21556;-57
2022/09/05 12:27:32;;;;;;;3.93;1.27;;;;;;;22.81;38.91;100666.12;1658563;86;21494;-58
2022/09/05 12:30:06;;;;;;;2.53;1.50;;;;;;;23.32;37.59;100652.39;1661083;85;20880;-55
2022/09/05 12:32:35;;;;;;;3.03;1.20;;;;;;;23.58;37.67;100647.99;1660780;86;21938;-62
2022/09/05 12:35:03;;;;;;;2.90;1.50;;;;;;;23.92;37.24;100648.95;1639574;86;21623;-56
2022/09/05 12:38:04;;;;;;;4.53;1.50;;;;;;;24.04;36.04;100651.63;1658886;86;21007;-55
2022/09/05 12:40:39;;;;;;;3.72;1.32;;;;;;;24.06;35.27;100650.05;1657580;85;20952;-56
2022/09/05 12:43:08;;;;;;;3.50;1.60;;;;;;;23.92;35.33;100644.95;1659021;86;21011;-55
2022/09/05 12:46:04;;;;;;;3.20;1.80;;;;;;;23.89;35.75;100640.14;1658374;86;21235;-54
2022/09/05 12:48:54;;;;;;;4.57;2.23;;;;;;;23.76;35.52;100638.78;1658718;86;21679;-57
2022/09/05 12:51:27;;;;;;;4.23;2.40;;;;;;;23.65;34.93;100633.13;1660052;85;21818;-55
2022/09/05 12:54:00;;;;;;;4.03;2.70;;;;;;;23.46;35.23;100642.09;1660973;86;21116;-55